Time;durP1;ratioP1;P1;durP2;ratioP2;P2;SDS_P1;SDS_P2;PMS_P1;PMS_P2;Temp;Humidity;BMP_temperature;BMP_pressure;BME280_temperature;BME280_humidity;BME280_pressure;Samples;Min_cycle;Max_cycle;Signal;HPM_P1;HPM_P2
2022/01/01 00:00:37;;;;;;;18.47;15.33;;;11.70;78.70;;;;;;5071698;28;20445;-48
2022/01/01 00:03:03;;;;;;;14.60;12.80;;;11.70;80.10;;;;;;5071599;28;20491;-48
2022/01/01 00:05:30;;;;;;;12.90;10.50;;;11.70;83.20;;;;;;5058359;28;20976;-49
2022/01/01 00:07:57;;;;;;;13.33;11.90;;;11.70;92.70;;;;;;5058745;28;20534;-49
2022/01/01 00:10:25;;;;;;;10.87;9.87;;;11.70;94.80;;;;;;5066028;28;20476;-48
2022/01/01 00:12:52;;;;;;;10.50;9.50;;;11.70;99.80;;;;;;5051270;28;20935;-49
2022/01/01 00:15:19;;;;;;;10.70;8.40;;;11.70;98.20;;;;;;5051344;28;20507;-48
2022/01/01 00:17:46;;;;;;;10.80;8.13;;;11.70;99.80;;;;;;5051142;28;20481;-48
2022/01/01 00:20:14;;;;;;;8.83;8.00;;;11.70;99.80;;;;;;5051277;28;20875;-49
2022/01/01 00:22:42;;;;;;;10.87;8.80;;;11.70;99.90;;;;;;5058358;28;20476;-49
2022/01/01 00:25:10;;;;;;;25.43;19.40;;;11.70;99.90;;;;;;5071320;28;20488;-47
2022/01/01 00:27:38;;;;;;;18.43;12.80;;;11.70;99.90;;;;;;5069463;28;20477;-48
2022/01/01 00:30:06;;;;;;;11.60;9.37;;;11.70;99.90;;;;;;5070938;28;20479;-48
2022/01/01 00:32:33;;;;;;;9.47;7.60;;;11.70;99.90;;;;;;5071151;28;20502;-52
2022/01/01 00:35:00;;;;;;;9.30;8.30;;;11.70;99.90;;;;;;5071273;28;20457;-52
2022/01/01 00:37:26;;;;;;;8.20;7.40;;;11.70;99.90;;;;;;5057577;28;20949;-51
2022/01/01 00:39:55;;;;;;;9.90;7.70;;;11.70;99.90;;;;;;5054894;28;20477;-51
2022/01/01 00:42:21;;;;;;;13.27;7.67;;;11.70;99.90;;;;;;5055051;28;20449;-51
2022/01/01 00:44:49;;;;;;;6.03;5.43;;;11.70;99.90;;;;;;5069404;28;20846;-50
2022/01/01 00:47:16;;;;;;;7.23;6.53;;;11.70;99.90;;;;;;5074877;28;20925;-51
2022/01/01 00:49:43;;;;;;;6.83;6.23;;;11.70;99.90;;;;;;5074904;28;20827;-51
2022/01/01 00:52:09;;;;;;;8.07;6.23;;;11.70;99.90;;;;;;5059241;28;20449;-51
2022/01/01 00:54:36;;;;;;;7.53;6.80;;;11.70;99.90;;;;;;5054547;28;20806;-51
2022/01/01 00:57:03;;;;;;;7.10;6.40;;;11.70;99.90;;;;;;5054792;28;20524;-51
2022/01/01 00:59:30;;;;;;;6.20;5.60;;;11.70;99.90;;;;;;5054537;28;20445;-51
2022/01/01 01:01:59;;;;;;;7.13;6.03;;;11.70;99.90;;;;;;5072790;28;20540;-51
2022/01/01 01:04:26;;;;;;;11.60;6.40;;;11.70;99.90;;;;;;5073488;28;20466;-52
2022/01/01 01:06:52;;;;;;;6.10;5.60;;;11.70;99.90;;;;;;5074699;28;20516;-51
2022/01/01 01:09:19;;;;;;;8.50;6.30;;;11.70;99.90;;;;;;5074148;28;20481;-51
2022/01/01 01:11:48;;;;;;;8.93;6.20;;;11.70;99.90;;;;;;5074205;28;20441;-52
2022/01/01 01:14:21;;;;;;;5.77;5.27;;;11.70;99.90;;;;;;5071394;28;20561;-52
2022/01/01 01:16:48;;;;;;;5.90;5.17;;;11.70;99.90;;;;;;5054477;28;20465;-52
2022/01/01 01:19:16;;;;;;;9.00;5.87;;;11.70;99.90;;;;;;5055357;28;20457;-52
2022/01/01 01:21:44;;;;;;;6.70;6.10;;;11.70;99.90;;;;;;5054209;28;20501;-52
2022/01/01 01:24:11;;;;;;;6.47;5.87;;;11.80;99.90;;;;;;5054070;28;20450;-52
2022/01/01 01:26:38;;;;;;;6.40;5.80;;;11.80;99.90;;;;;;5053715;28;20999;-51
2022/01/01 01:29:05;;;;;;;6.87;5.83;;;11.80;99.90;;;;;;5054089;28;20474;-52
2022/01/01 01:31:33;;;;;;;7.43;5.60;;;11.70;99.90;;;;;;5062460;28;20514;-51
2022/01/01 01:34:01;;;;;;;5.97;5.40;;;11.70;99.90;;;;;;5069049;28;20473;-52
2022/01/01 01:36:29;;;;;;;6.60;6.00;;;11.70;99.90;;;;;;5073680;28;20534;-51
2022/01/01 01:38:56;;;;;;;6.00;5.40;;;11.70;99.90;;;;;;5070942;28;20502;-52
2022/01/01 01:41:23;;;;;;;5.73;5.23;;;11.60;99.90;;;;;;5053650;28;20485;-51
2022/01/01 01:43:52;;;;;;;6.30;5.70;;;11.70;95.90;;;;;;5053468;28;20453;-51
2022/01/01 01:46:18;;;;;;;5.70;5.33;;;11.70;83.80;;;;;;5053623;28;20496;-52
2022/01/01 01:48:46;;;;;;;6.70;6.07;;;11.70;88.00;;;;;;5069428;28;20453;-52
2022/01/01 01:51:13;;;;;;;6.53;5.83;;;11.70;86.30;;;;;;5073422;28;20554;-52
2022/01/01 01:53:41;;;;;;;5.90;5.30;;;11.70;82.70;;;;;;5073415;28;20851;-51
2022/01/01 01:56:07;;;;;;;10.70;5.60;;;11.70;79.50;;;;;;5073253;28;20511;-53
2022/01/01 01:58:34;;;;;;;7.43;6.67;;;11.70;83.20;;;;;;5072939;28;20480;-51
2022/01/01 02:01:20;;;;;;;5.77;5.23;;;11.70;80.90;;;;;;5073149;28;20941;-52
2022/01/01 02:03:47;;;;;;;6.10;5.60;;;11.60;77.80;;;;;;5055373;28;20452;-52
2022/01/01 02:06:15;;;;;;;8.67;5.83;;;11.60;74.80;;;;;;5072754;28;20930;-51
2022/01/01 02:08:44;;;;;;;6.30;5.77;;;11.70;72.80;;;;;;5072727;28;20481;-51
2022/01/01 02:11:10;;;;;;;8.70;6.10;;;11.60;76.50;;;;;;5072868;28;20950;-51
2022/01/01 02:13:48;;;;;;;6.90;6.00;;;11.60;73.30;;;;;;5059851;28;20507;-52
2022/01/01 02:16:32;;;;;;;7.10;5.93;;;11.60;72.40;;;;;;5071208;28;20473;-51
2022/01/01 02:18:58;;;;;;;8.90;6.73;;;11.60;69.20;;;;;;5073142;28;20445;-51
2022/01/01 02:21:26;;;;;;;8.33;6.33;;;11.60;70.10;;;;;;5072499;28;20503;-52
2022/01/01 02:23:57;;;;;;;7.33;6.63;;;11.60;65.60;;;;;;5059154;28;20485;-52
2022/01/01 02:26:30;;;;;;;7.47;6.47;;;11.60;69.00;;;;;;5055333;28;20481;-52
2022/01/01 02:28:58;;;;;;;9.97;7.23;;;11.60;65.70;;;;;;5072143;28;20512;-52
2022/01/01 02:31:25;;;;;;;14.20;7.63;;;11.60;63.20;;;;;;5072468;28;20448;-52
2022/01/01 02:33:52;;;;;;;8.30;6.90;;;11.60;61.00;;;;;;5072384;28;20532;-52
2022/01/01 02:36:31;;;;;;;7.67;6.97;;;11.60;65.90;;;;;;5070665;28;20496;-52
2022/01/01 02:38:58;;;;;;;12.40;7.93;;;11.50;65.10;;;;;;5072113;28;20465;-52
2022/01/01 02:41:25;;;;;;;11.73;6.70;;;11.60;63.10;;;;;;5069347;28;20970;-52
2022/01/01 02:43:52;;;;;;;8.10;6.43;;;11.50;61.90;;;;;;5052043;28;20446;-51
2022/01/01 02:46:19;;;;;;;10.03;6.20;;;11.60;74.20;;;;;;5052632;28;20560;-52
2022/01/01 02:48:45;;;;;;;7.30;6.33;;;11.60;78.30;;;;;;5052243;28;20557;-52
2022/01/01 02:51:12;;;;;;;8.40;6.30;;;11.50;80.00;;;;;;5052297;28;20531;-52
2022/01/01 02:53:43;;;;;;;9.30;6.47;;;11.50;78.70;;;;;;5052262;28;20529;-52
2022/01/01 02:56:10;;;;;;;8.90;6.23;;;11.50;75.00;;;;;;5064555;28;20549;-52
2022/01/01 02:58:36;;;;;;;11.77;6.23;;;11.50;76.20;;;;;;5071821;28;20487;-52
2022/01/01 03:01:03;;;;;;;11.30;5.90;;;11.40;73.90;;;;;;5066955;28;20531;-52
2022/01/01 03:03:29;;;;;;;11.07;6.40;;;11.40;70.30;;;;;;5072103;28;20527;-52
2022/01/01 03:05:56;;;;;;;6.90;5.80;;;11.50;73.40;;;;;;5071832;28;20492;-52
2022/01/01 03:08:22;;;;;;;9.70;5.87;;;11.40;71.60;;;;;;5071558;28;20535;-52
2022/01/01 03:10:50;;;;;;;7.77;5.63;;;11.50;71.60;;;;;;5052002;28;20450;-52
2022/01/01 03:13:17;;;;;;;18.90;6.90;;;11.40;75.90;;;;;;5068025;28;20467;-52
2022/01/01 03:15:43;;;;;;;11.80;6.80;;;11.50;73.70;;;;;;5071939;28;20539;-53
2022/01/01 03:18:10;;;;;;;13.47;7.70;;;11.40;78.40;;;;;;5071506;28;20869;-51
2022/01/01 03:20:37;;;;;;;12.83;7.70;;;11.50;74.80;;;;;;5071833;28;20885;-52
2022/01/01 03:23:04;;;;;;;16.33;7.70;;;11.40;77.90;;;;;;5070743;28;20531;-52
2022/01/01 03:25:31;;;;;;;13.63;7.70;;;11.40;78.70;;;;;;5070198;28;20475;-53
2022/01/01 03:27:59;;;;;;;14.10;6.90;;;11.40;82.20;;;;;;5060084;28;21085;-51
2022/01/01 03:30:25;;;;;;;21.40;7.10;;;11.40;81.10;;;;;;5051768;28;20550;-52
2022/01/01 03:32:52;;;;;;;15.83;7.53;;;11.40;81.60;;;;;;5051749;28;20537;-52
2022/01/01 03:35:18;;;;;;;13.03;7.23;;;11.30;82.30;;;;;;5051567;28;20533;-51
2022/01/01 03:37:45;;;;;;;13.33;7.37;;;11.40;86.30;;;;;;5065229;28;20552;-52
2022/01/01 03:40:12;;;;;;;10.13;6.73;;;11.30;89.40;;;;;;5070751;28;20998;-52
2022/01/01 03:42:38;;;;;;;17.00;7.80;;;11.30;92.10;;;;;;5071784;28;20480;-52
2022/01/01 03:45:08;;;;;;;13.77;6.30;;;11.30;93.30;;;;;;5071694;28;20528;-52
2022/01/01 03:47:35;;;;;;;8.10;6.30;;;11.30;93.00;;;;;;5071090;28;20511;-52
2022/01/01 03:50:02;;;;;;;16.93;7.20;;;11.30;96.70;;;;;;5070911;28;20703;-52
2022/01/01 03:52:29;;;;;;;16.97;6.40;;;11.30;94.60;;;;;;5071539;28;20509;-51
2022/01/01 03:54:55;;;;;;;14.33;6.90;;;11.30;94.00;;;;;;5071145;28;20970;-52
2022/01/01 03:57:22;;;;;;;10.60;6.80;;;11.40;94.80;;;;;;5058054;22;20536;-55
2022/01/01 03:59:48;;;;;;;24.93;8.07;;;11.30;99.90;;;;;;5024075;28;20467;-55
2022/01/01 04:02:16;;;;;;;13.30;7.63;;;11.40;99.90;;;;;;5015994;28;20829;-54
2022/01/01 04:04:43;;;;;;;15.73;7.50;;;11.40;99.90;;;;;;5020697;28;20446;-54
2022/01/01 04:07:10;;;;;;;18.47;6.63;;;11.40;99.90;;;;;;5019283;28;20523;-54
2022/01/01 04:09:36;;;;;;;15.83;7.73;;;11.40;99.90;;;;;;4996109;28;20453;-54
2022/01/01 04:12:03;;;;;;;16.53;7.73;;;11.40;99.90;;;;;;4994049;28;20452;-54
2022/01/01 04:14:30;;;;;;;16.30;6.93;;;11.40;99.90;;;;;;4996069;28;20480;-54
2022/01/01 04:16:58;;;;;;;15.07;7.20;;;11.40;99.90;;;;;;4995875;28;20688;-54
2022/01/01 04:19:36;;;;;;;15.83;7.43;;;11.40;99.90;;;;;;5013084;28;20464;-54
2022/01/01 04:22:03;;;;;;;19.90;7.40;;;11.40;99.90;;;;;;5023187;28;20443;-60
2022/01/01 04:24:29;;;;;;;16.10;9.20;;;11.40;99.90;;;;;;5006497;28;20890;-54
2022/01/01 04:26:56;;;;;;;13.90;7.40;;;11.40;99.90;;;;;;5015178;28;21001;-54
2022/01/01 04:29:23;;;;;;;10.83;6.73;;;11.40;99.90;;;;;;5014732;28;20932;-54
2022/01/01 04:31:50;;;;;;;16.40;8.37;;;11.30;99.90;;;;;;5008947;28;20826;-53
2022/01/01 04:34:17;;;;;;;15.37;7.10;;;11.40;99.90;;;;;;4995370;28;20870;-54
2022/01/01 04:36:50;;;;;;;21.97;8.37;;;11.40;99.90;;;;;;5001146;28;20505;-55
2022/01/01 04:39:16;;;;;;;14.70;7.13;;;11.40;99.90;;;;;;5006749;28;20531;-53
2022/01/01 04:41:43;;;;;;;15.70;7.70;;;11.30;99.90;;;;;;5015022;28;20538;-54
2022/01/01 04:44:09;;;;;;;13.17;7.53;;;11.40;99.90;;;;;;5016235;28;20471;-56
2022/01/01 04:46:36;;;;;;;14.60;6.63;;;11.40;99.90;;;;;;5020490;28;20969;-54
2022/01/01 04:49:03;;;;;;;14.03;6.83;;;11.40;99.90;;;;;;5014853;28;20475;-54
2022/01/01 04:51:29;;;;;;;14.77;6.90;;;11.40;99.90;;;;;;5010060;28;20514;-55
2022/01/01 04:54:00;;;;;;;18.10;7.37;;;11.40;99.90;;;;;;5008752;28;20543;-54
2022/01/01 04:56:28;;;;;;;13.40;7.23;;;11.40;99.90;;;;;;5014534;28;20479;-54
2022/01/01 04:58:55;;;;;;;12.57;7.70;;;11.40;99.90;;;;;;5012971;28;20448;-54
2022/01/01 05:01:22;;;;;;;20.97;7.53;;;11.40;99.90;;;;;;4975380;28;20531;-55
2022/01/01 05:03:49;;;;;;;15.00;7.50;;;11.40;99.90;;;;;;4991989;28;20456;-54
2022/01/01 05:06:19;;;;;;;14.03;7.50;;;11.40;99.90;;;;;;4995089;28;20476;-54
2022/01/01 05:08:45;;;;;;;15.90;8.17;;;11.40;99.90;;;;;;4994529;28;20942;-54
2022/01/01 05:11:13;;;;;;;21.03;7.83;;;11.40;99.90;;;;;;4994822;28;20547;-54
2022/01/01 05:13:40;;;;;;;18.67;7.63;;;11.40;99.90;;;;;;4998638;28;20539;-54
2022/01/01 05:16:06;;;;;;;16.77;8.50;;;11.30;99.90;;;;;;5014493;28;20498;-54
2022/01/01 05:18:36;;;;;;;10.20;6.73;;;11.40;99.90;;;;;;5011785;28;20814;-54
2022/01/01 05:21:03;;;;;;;14.27;8.30;;;11.40;99.90;;;;;;5002778;28;20533;-55
2022/01/01 05:23:29;;;;;;;12.43;7.77;;;11.30;99.90;;;;;;5012968;28;20479;-54
2022/01/01 05:25:56;;;;;;;13.63;7.60;;;11.30;99.90;;;;;;5014185;28;20543;-54
2022/01/01 05:28:24;;;;;;;10.93;7.50;;;11.30;99.90;;;;;;5012897;28;20909;-54
2022/01/01 05:30:52;;;;;;;13.80;7.97;;;11.40;99.90;;;;;;5013909;28;20882;-54
2022/01/01 05:33:18;;;;;;;20.47;7.63;;;11.30;99.90;;;;;;5012572;28;21019;-54
2022/01/01 05:35:45;;;;;;;15.53;8.30;;;11.30;99.90;;;;;;5014063;28;20479;-54
2022/01/01 05:38:12;;;;;;;17.30;9.47;;;11.40;99.90;;;;;;5013784;28;20475;-54
2022/01/01 05:40:38;;;;;;;15.47;10.13;;;11.40;99.90;;;;;;5009228;28;20503;-54
2022/01/01 05:43:12;;;;;;;19.43;8.53;;;11.40;99.90;;;;;;5006404;28;21155;-58
2022/01/01 05:45:41;;;;;;;20.37;10.00;;;11.40;99.90;;;;;;4974730;28;20457;-59
2022/01/01 05:48:07;;;;;;;22.00;9.97;;;11.40;99.90;;;;;;4987226;28;20485;-58
2022/01/01 05:50:34;;;;;;;17.70;9.40;;;11.40;99.90;;;;;;4994340;28;20485;-58
2022/01/01 05:53:01;;;;;;;17.40;9.43;;;11.40;99.90;;;;;;4994115;28;20860;-59
2022/01/01 05:55:27;;;;;;;19.27;9.70;;;11.40;99.90;;;;;;5005332;28;20451;-58
2022/01/01 05:57:54;;;;;;;16.70;10.23;;;11.40;99.90;;;;;;5013185;28;20827;-58
2022/01/01 06:00:20;;;;;;;23.87;10.30;;;11.40;99.90;;;;;;5013673;28;20530;-58
2022/01/01 06:02:48;;;;;;;19.30;11.17;;;11.40;99.90;;;;;;4999534;28;20483;-58
2022/01/01 06:05:15;;;;;;;21.73;11.03;;;11.40;99.90;;;;;;5010290;28;20475;-58
2022/01/01 06:07:41;;;;;;;17.60;10.03;;;11.40;99.90;;;;;;5012895;28;20526;-58
2022/01/01 06:10:08;;;;;;;17.00;10.33;;;11.40;99.90;;;;;;5012628;28;20909;-59
2022/01/01 06:12:38;;;;;;;23.87;9.83;;;11.50;99.90;;;;;;5013350;28;20479;-58
2022/01/01 06:15:05;;;;;;;18.50;10.27;;;11.40;99.90;;;;;;5010583;28;20491;-58
2022/01/01 06:17:32;;;;;;;18.90;11.50;;;11.40;99.90;;;;;;4993289;28;20544;-59
2022/01/01 06:20:00;;;;;;;22.90;11.53;;;11.40;99.90;;;;;;4993722;28;20452;-58
2022/01/01 06:22:27;;;;;;;25.60;11.87;;;11.50;99.90;;;;;;5000585;28;20539;-58
2022/01/01 06:24:53;;;;;;;21.53;11.23;;;11.40;99.90;;;;;;5013305;28;20456;-58
2022/01/01 06:27:20;;;;;;;19.63;11.80;;;11.50;99.90;;;;;;5012945;28;20515;-58
2022/01/01 06:29:46;;;;;;;18.43;11.10;;;11.50;99.90;;;;;;5009662;28;21024;-58
2022/01/01 06:32:13;;;;;;;18.53;11.37;;;11.40;99.90;;;;;;5004671;28;20462;-58
2022/01/01 06:34:40;;;;;;;19.23;11.10;;;11.50;99.90;;;;;;4992849;28;20480;-58
2022/01/01 06:37:08;;;;;;;25.00;12.23;;;11.40;99.90;;;;;;5007306;28;21019;-57
2022/01/01 06:39:34;;;;;;;24.97;11.33;;;11.50;99.90;;;;;;5012610;28;20937;-58
2022/01/01 06:42:01;;;;;;;24.03;9.90;;;11.50;99.90;;;;;;5013143;28;20502;-59
2022/01/01 06:44:28;;;;;;;24.93;11.70;;;11.40;99.90;;;;;;5000686;28;20480;-58
2022/01/01 06:46:54;;;;;;;26.47;11.93;;;11.40;99.90;;;;;;4992982;28;20993;-58
2022/01/01 06:49:21;;;;;;;23.97;11.80;;;11.40;99.90;;;;;;4994732;28;20510;-59
2022/01/01 06:51:47;;;;;;;23.73;11.43;;;11.50;99.90;;;;;;5013210;28;20480;-59
2022/01/01 06:54:15;;;;;;;24.43;11.67;;;11.50;99.90;;;;;;5005027;28;21022;-59
2022/01/01 06:56:42;;;;;;;18.60;11.60;;;11.40;99.90;;;;;;5013492;28;20537;-58
2022/01/01 06:59:09;;;;;;;23.00;11.23;;;11.40;99.90;;;;;;4997116;28;20491;-59
2022/01/01 07:01:36;;;;;;;20.10;11.70;;;11.50;99.90;;;;;;4993617;28;20946;-58
2022/01/01 07:04:03;;;;;;;22.43;11.87;;;11.50;99.90;;;;;;5002044;28;20969;-59
2022/01/01 07:06:30;;;;;;;21.90;11.67;;;11.40;99.90;;;;;;4995903;28;20850;-60
2022/01/01 07:08:56;;;;;;;15.80;9.60;;;11.40;99.90;;;;;;4978027;28;20524;-53
2022/01/01 07:11:24;;;;;;;22.47;11.23;;;11.50;99.90;;;;;;4975058;28;20516;-53
2022/01/01 07:13:51;;;;;;;25.83;12.23;;;11.50;99.90;;;;;;5007196;28;20475;-55
2022/01/01 07:16:20;;;;;;;23.07;12.43;;;11.50;99.90;;;;;;4995963;28;20540;-56
2022/01/01 07:18:46;;;;;;;22.00;11.60;;;11.50;99.90;;;;;;5008981;28;20536;-53
2022/01/01 07:21:13;;;;;;;25.77;12.27;;;11.50;99.90;;;;;;5012497;28;20530;-54
2022/01/01 07:23:40;;;;;;;22.53;11.30;;;11.50;99.90;;;;;;5012721;28;20965;-54
2022/01/01 07:26:06;;;;;;;22.60;11.23;;;11.50;99.90;;;;;;5011721;28;20499;-54
2022/01/01 07:28:34;;;;;;;25.77;11.70;;;11.40;99.90;;;;;;5003716;28;20584;-55
2022/01/01 07:31:00;;;;;;;26.73;11.17;;;11.50;99.90;;;;;;5011246;28;20478;-54
2022/01/01 07:33:27;;;;;;;27.33;12.60;;;11.50;99.90;;;;;;5011768;28;20546;-54
2022/01/01 07:35:55;;;;;;;22.77;12.83;;;11.50;99.90;;;;;;5012115;28;20475;-54
2022/01/01 07:38:22;;;;;;;22.83;12.50;;;11.50;99.90;;;;;;5012027;28;20452;-54
2022/01/01 07:40:49;;;;;;;23.23;13.20;;;11.50;99.90;;;;;;5011106;28;20539;-53
2022/01/01 07:43:17;;;;;;;25.23;12.50;;;11.40;99.90;;;;;;5012306;28;20527;-54
2022/01/01 07:45:45;;;;;;;26.37;12.37;;;11.40;99.90;;;;;;5000152;28;20528;-54
2022/01/01 07:48:12;;;;;;;18.37;11.03;;;11.40;99.90;;;;;;4996367;28;20915;-54
2022/01/01 07:50:39;;;;;;;20.07;10.50;;;11.40;99.90;;;;;;4996581;28;20480;-59
2022/01/01 07:53:06;;;;;;;26.67;11.83;;;11.40;99.90;;;;;;4996525;28;20480;-54
2022/01/01 07:55:33;;;;;;;20.90;11.63;;;11.40;99.90;;;;;;5007518;28;20462;-54
2022/01/01 07:57:59;;;;;;;29.13;12.23;;;11.40;99.90;;;;;;5010283;28;20525;-54
2022/01/01 08:00:26;;;;;;;27.20;11.23;;;11.40;99.90;;;;;;4997538;28;20531;-54
2022/01/01 08:02:54;;;;;;;29.07;13.57;;;11.40;99.90;;;;;;5002647;28;20524;-56
2022/01/01 08:05:21;;;;;;;20.40;11.33;;;11.40;99.90;;;;;;5007755;28;20983;-56
2022/01/01 08:07:47;;;;;;;17.97;10.30;;;11.40;99.90;;;;;;5015582;28;20494;-55
2022/01/01 08:10:14;;;;;;;23.57;10.90;;;11.50;99.90;;;;;;4996452;28;20563;-55
2022/01/01 08:12:41;;;;;;;27.53;12.50;;;11.50;99.90;;;;;;5001536;28;20984;-53
2022/01/01 08:15:09;;;;;;;20.93;10.70;;;11.60;99.90;;;;;;5015575;28;20797;-55
2022/01/01 08:17:36;;;;;;;17.73;10.50;;;11.60;99.90;;;;;;5015161;28;20530;-56
2022/01/01 08:20:05;;;;;;;26.83;11.67;;;11.60;99.90;;;;;;5015564;28;20459;-54
2022/01/01 08:22:31;;;;;;;20.00;11.87;;;11.60;99.90;;;;;;5013407;28;20488;-57
2022/01/01 08:24:58;;;;;;;33.80;13.20;;;11.60;99.90;;;;;;5007125;28;20482;-57
2022/01/01 08:27:24;;;;;;;24.10;12.00;;;11.60;94.80;;;;;;5012861;28;20495;-54
2022/01/01 08:29:51;;;;;;;24.90;12.10;;;11.60;98.80;;;;;;4995627;28;20540;-57
2022/01/01 08:32:17;;;;;;;18.23;11.63;;;11.60;22.90;;;;;;4995736;28;20532;-57
2022/01/01 08:34:44;;;;;;;21.53;11.33;;;11.60;26.30;;;;;;4995527;28;20556;-56
2022/01/01 08:37:12;;;;;;;21.17;11.37;;;11.60;27.30;;;;;;5003211;28;20482;-57
2022/01/01 08:39:39;;;;;;;21.63;11.83;;;11.60;32.50;;;;;;5006578;28;20478;-56
2022/01/01 08:42:06;;;;;;;22.87;12.83;;;11.60;31.80;;;;;;5014062;28;20456;-56
2022/01/01 08:44:33;;;;;;;18.87;11.47;;;11.60;27.70;;;;;;5015024;28;20457;-57
2022/01/01 08:46:59;;;;;;;23.20;11.33;;;11.60;29.10;;;;;;5014827;28;20471;-57
2022/01/01 08:49:26;;;;;;;28.47;12.37;;;11.60;32.70;;;;;;5014594;28;20578;-57
2022/01/01 08:51:55;;;;;;;26.50;12.40;;;11.60;30.10;;;;;;5014950;28;20471;-57
2022/01/01 08:54:23;;;;;;;23.83;13.60;;;11.70;35.80;;;;;;5000351;28;20453;-57
2022/01/01 08:56:50;;;;;;;25.27;11.90;;;11.70;41.70;;;;;;4997467;28;20607;-57
2022/01/01 08:59:17;;;;;;;24.13;12.17;;;11.70;42.00;;;;;;5014440;28;20880;-56
2022/01/01 09:01:44;;;;;;;30.97;12.57;;;11.70;47.00;;;;;;5014692;28;20538;-57
2022/01/01 09:04:10;;;;;;;19.10;11.53;;;11.70;45.60;;;;;;5014872;28;20455;-56
2022/01/01 09:06:37;;;;;;;20.80;11.03;;;11.80;51.10;;;;;;5014418;28;20551;-54
2022/01/01 09:09:03;;;;;;;30.30;11.60;;;11.70;52.40;;;;;;5014640;28;20533;-56
2022/01/01 09:11:31;;;;;;;18.23;10.30;;;11.80;49.20;;;;;;5006911;28;20964;-56
2022/01/01 09:13:58;;;;;;;21.27;12.43;;;11.80;49.40;;;;;;5014343;28;20518;-56
2022/01/01 09:16:29;;;;;;;24.03;11.10;;;11.80;47.40;;;;;;5014545;28;20503;-56
2022/01/01 09:18:57;;;;;;;24.00;11.80;;;11.80;48.60;;;;;;5013641;28;20459;-58
2022/01/01 09:21:24;;;;;;;30.60;12.67;;;11.80;53.00;;;;;;5015448;28;20533;-55
2022/01/01 09:23:51;;;;;;;24.43;12.70;;;11.80;56.80;;;;;;5013610;28;20494;-57
2022/01/01 09:26:19;;;;;;;21.47;12.00;;;11.90;64.50;;;;;;5002987;28;20472;-58
2022/01/01 09:28:46;;;;;;;30.33;13.40;;;11.90;65.80;;;;;;4994220;28;20516;-58
2022/01/01 09:31:13;;;;;;;29.13;13.30;;;11.90;69.10;;;;;;4994484;28;21002;-57
2022/01/01 09:33:40;;;;;;;22.80;12.40;;;11.90;70.70;;;;;;4995001;28;20449;-57
2022/01/01 09:36:07;;;;;;;25.63;14.03;;;11.90;71.10;;;;;;4995348;28;20966;-57
2022/01/01 09:38:34;;;;;;;24.53;12.00;;;12.00;72.50;;;;;;4995358;28;20448;-57
2022/01/01 09:41:02;;;;;;;35.00;13.83;;;11.90;75.60;;;;;;5001439;28;20513;-58
2022/01/01 09:43:31;;;;;;;25.60;12.50;;;11.90;77.20;;;;;;5002035;28;20487;-57
2022/01/01 09:46:00;;;;;;;31.37;14.67;;;12.00;80.30;;;;;;4995052;28;20558;-57
2022/01/01 09:48:28;;;;;;;28.47;12.90;;;12.00;78.10;;;;;;4995623;28;20514;-58
2022/01/01 09:51:01;;;;;;;32.07;14.10;;;11.90;74.30;;;;;;4994642;28;20896;-58
2022/01/01 09:53:29;;;;;;;26.77;13.20;;;12.00;84.90;;;;;;4995227;28;20946;-56
2022/01/01 09:55:57;;;;;;;26.83;13.97;;;12.00;88.10;;;;;;4994449;28;20449;-57
2022/01/01 09:58:24;;;;;;;25.63;14.07;;;12.00;90.20;;;;;;5067400;22;20588;-48
2022/01/01 10:00:52;;;;;;;28.97;13.00;;;12.00;88.50;;;;;;5053244;28;20533;-47
2022/01/01 10:03:28;;;;;;;25.23;13.23;;;12.00;87.60;;;;;;5053284;28;20572;-48
2022/01/01 10:05:59;;;;;;;37.27;15.23;;;12.00;87.00;;;;;;5053462;28;20529;-47
2022/01/01 10:08:25;;;;;;;34.77;13.97;;;12.00;84.90;;;;;;5052597;28;20568;-46
2022/01/01 10:10:53;;;;;;;28.63;14.17;;;12.00;87.50;;;;;;5052997;28;20457;-47
2022/01/01 10:13:25;;;;;;;27.40;14.20;;;12.00;88.30;;;;;;5052891;28;20962;-47
2022/01/01 10:15:54;;;;;;;23.30;13.87;;;12.00;88.40;;;;;;5071623;28;20449;-47
2022/01/01 10:18:26;;;;;;;25.77;14.70;;;12.10;88.20;;;;;;5072887;28;20540;-48
2022/01/01 10:20:57;;;;;;;33.20;14.30;;;12.00;85.30;;;;;;5073124;28;20506;-48
2022/01/01 10:23:27;;;;;;;27.87;13.40;;;12.00;87.90;;;;;;5063024;28;20449;-48
2022/01/01 10:28:53;;;;;;;28.67;14.30;;;12.10;91.20;;;;;;5052707;28;20481;-47
2022/01/01 10:31:19;;;;;;;31.30;14.97;;;12.10;86.40;;;;;;5053283;28;20554;-47
2022/01/01 10:33:47;;;;;;;33.07;14.63;;;12.10;90.40;;;;;;5053368;28;20493;-47
2022/01/01 10:36:15;;;;;;;28.43;14.53;;;12.10;90.80;;;;;;5052447;28;20441;-46
2022/01/01 10:38:41;;;;;;;25.00;13.73;;;12.10;87.30;;;;;;5056039;28;20437;-48
2022/01/01 10:41:10;;;;;;;36.20;16.47;;;12.10;89.30;;;;;;5072704;28;20473;-46
2022/01/01 10:43:38;;;;;;;27.63;16.73;;;12.10;90.30;;;;;;5072672;28;20457;-48
2022/01/01 10:46:06;;;;;;;34.47;15.93;;;12.10;88.80;;;;;;5055110;28;20537;-46
2022/01/01 10:48:42;;;;;;;31.53;16.63;;;12.10;89.10;;;;;;5052086;28;20524;-47
2022/01/01 10:51:12;;;;;;;26.50;14.30;;;12.10;86.90;;;;;;5052215;28;20468;-47
2022/01/01 10:53:39;;;;;;;32.87;16.37;;;12.10;88.00;;;;;;5052946;28;20450;-47
2022/01/01 10:56:17;;;;;;;32.57;16.60;;;12.10;86.30;;;;;;5052477;28;20446;-47
2022/01/01 10:58:43;;;;;;;27.50;15.83;;;12.10;78.80;;;;;;5052089;28;20516;-48
2022/01/01 11:01:11;;;;;;;30.90;16.63;;;12.10;77.00;;;;;;5054393;28;20553;-47
2022/01/01 11:03:39;;;;;;;29.53;16.60;;;12.10;74.80;;;;;;5071984;28;21018;-48
2022/01/01 11:06:07;;;;;;;33.33;17.17;;;12.10;74.30;;;;;;5072433;28;20477;-48
2022/01/01 11:08:36;;;;;;;24.03;15.57;;;12.10;76.10;;;;;;5056102;28;20569;-48
2022/01/01 11:11:03;;;;;;;30.07;15.47;;;12.10;76.60;;;;;;5052036;28;20885;-47
2022/01/01 11:13:31;;;;;;;33.93;17.00;;;12.10;78.60;;;;;;5052384;28;20536;-48
2022/01/01 11:15:58;;;;;;;53.00;16.97;;;12.20;80.80;;;;;;5052033;28;20529;-47
2022/01/01 11:18:26;;;;;;;29.23;16.33;;;12.20;80.30;;;;;;5056476;28;20981;-48
2022/01/01 11:20:53;;;;;;;36.90;17.40;;;12.20;85.30;;;;;;5052050;28;20449;-48
2022/01/01 11:23:21;;;;;;;30.80;16.20;;;12.20;86.00;;;;;;5052288;28;20529;-48
2022/01/01 11:25:51;;;;;;;32.67;17.40;;;12.20;91.70;;;;;;5052431;28;20891;-47
2022/01/01 11:28:20;;;;;;;35.60;18.93;;;12.20;99.90;;;;;;5071522;28;20472;-48
2022/01/01 11:30:50;;;;;;;34.93;18.03;;;12.30;99.90;;;;;;5071823;28;20518;-48
2022/01/01 11:33:20;;;;;;;40.73;18.03;;;12.30;99.90;;;;;;5059474;28;20477;-47
2022/01/01 11:35:54;;;;;;;35.47;17.40;;;12.30;99.90;;;;;;5052420;28;20533;-50
2022/01/01 11:38:21;;;;;;;34.93;17.70;;;12.30;99.90;;;;;;5051313;28;20552;-47
2022/01/01 11:40:57;;;;;;;35.90;17.60;;;12.30;99.90;;;;;;5058563;28;20506;-47
2022/01/01 11:43:35;;;;;;;30.30;16.80;;;12.40;99.90;;;;;;5051669;28;20525;-47
2022/01/01 11:46:07;;;;;;;33.03;16.77;;;12.40;99.90;;;;;;5051971;28;20473;-48
2022/01/01 11:48:42;;;;;;;37.10;19.73;;;12.40;99.90;;;;;;5051786;28;20470;-46
2022/01/01 11:51:32;;;;;;;38.53;17.90;;;12.40;99.90;;;;;;5052857;28;20480;-48
2022/01/01 11:54:25;;;;;;;33.53;18.23;;;12.40;99.90;;;;;;5051955;28;20454;-48
2022/01/01 11:57:08;;;;;;;31.13;17.53;;;12.40;99.90;;;;;;5051574;28;20476;-46
2022/01/01 11:59:46;;;;;;;34.73;18.10;;;12.40;99.90;;;;;;5051198;28;20521;-48
2022/01/01 12:02:32;;;;;;;31.27;15.77;;;12.40;99.90;;;;;;5051439;28;20529;-48
2022/01/01 12:05:20;;;;;;;37.13;16.87;;;12.40;99.90;;;;;;5059334;28;20925;-47
2022/01/01 12:07:53;;;;;;;32.43;15.47;;;12.40;99.90;;;;;;5035983;28;20545;-46
2022/01/01 12:10:23;;;;;;;31.30;15.40;;;12.40;99.90;;;;;;5051801;28;20486;-47
2022/01/01 12:12:53;;;;;;;33.20;17.17;;;12.40;99.90;;;;;;5051915;28;20489;-48
2022/01/01 12:15:37;;;;;;;27.60;16.43;;;12.30;99.90;;;;;;5071553;28;20503;-48
2022/01/01 12:18:27;;;;;;;26.87;16.63;;;12.40;99.90;;;;;;5068020;28;20560;-47
2022/01/01 12:21:01;;;;;;;31.00;15.90;;;12.30;99.90;;;;;;5053674;28;20509;-54
2022/01/01 12:23:30;;;;;;;32.00;16.83;;;12.30;99.90;;;;;;5031512;28;20443;-55
2022/01/01 12:25:57;;;;;;;41.37;18.37;;;12.30;99.90;;;;;;5031486;28;20474;-57
2022/01/01 12:28:27;;;;;;;41.67;16.23;;;12.30;99.90;;;;;;5030955;28;20532;-56
2022/01/01 12:30:55;;;;;;;25.60;16.17;;;12.30;99.90;;;;;;5046046;28;21083;-54
2022/01/01 12:33:26;;;;;;;30.20;15.70;;;12.20;99.90;;;;;;5053491;28;20823;-55
2022/01/01 12:35:55;;;;;;;30.30;17.03;;;12.20;99.90;;;;;;5055298;28;20544;-56
2022/01/01 12:38:24;;;;;;;42.13;17.27;;;12.20;99.90;;;;;;5054724;28;20836;-55
2022/01/01 12:41:05;;;;;;;32.37;17.70;;;12.20;99.90;;;;;;5054871;28;20867;-55